Time;durP1;ratioP1;P1;durP2;ratioP2;P2;SDS_P1;SDS_P2;PMS_P1;PMS_P2;Temp;Humidity;BMP_temperature;BMP_pressure;BME280_temperature;BME280_humidity;BME280_pressure;Samples;Min_cycle;Max_cycle;Signal;HPM_P1;HPM_P2
2021/04/17 00:02:05;;;;;;;12.27;5.18;;;;;;;;;;5083525;28;32038;-71
2021/04/17 00:04:31;;;;;;;6.05;2.63;;;;;;;;;;5082680;28;32679;-71
2021/04/17 00:06:57;;;;;;;9.55;3.08;;;;;;;;;;5083357;28;31344;-73
2021/04/17 00:09:25;;;;;;;12.10;3.67;;;;;;;;;;5082488;28;31897;-70
2021/04/17 00:11:51;;;;;;;7.07;3.15;;;;;;;;;;5082692;28;31894;-71
2021/04/17 00:14:19;;;;;;;12.65;3.05;;;;;;;;;;5082994;28;33542;-72
2021/04/17 00:16:45;;;;;;;8.40;2.83;;;;;;;;;;5083029;28;32421;-72
2021/04/17 00:19:11;;;;;;;12.20;2.75;;;;;;;;;;5083137;28;32034;-71
2021/04/17 00:21:37;;;;;;;13.95;3.67;;;;;;;;;;5083054;28;32533;-71
2021/04/17 00:24:03;;;;;;;9.23;2.70;;;;;;;;;;5082672;28;33645;-72
2021/04/17 00:26:30;;;;;;;9.48;3.33;;;;;;;;;;5082492;28;32326;-72
2021/04/17 00:28:56;;;;;;;9.07;3.25;;;;;;;;;;5082816;28;32907;-71
2021/04/17 00:31:21;;;;;;;9.00;3.45;;;;;;;;;;5082706;28;32098;-71
2021/04/17 00:33:47;;;;;;;10.77;2.97;;;;;;;;;;5082746;28;32615;-71
2021/04/17 00:36:13;;;;;;;13.38;3.30;;;;;;;;;;5082574;28;32215;-72
2021/04/17 00:38:38;;;;;;;7.45;2.78;;;;;;;;;;5082714;28;32013;-72
2021/04/17 00:41:04;;;;;;;11.48;2.83;;;;;;;;;;5082627;28;32994;-71
2021/04/17 00:43:30;;;;;;;7.47;2.33;;;;;;;;;;5082496;28;32493;-71
2021/04/17 00:45:56;;;;;;;8.82;2.85;;;;;;;;;;5082508;28;32320;-72
2021/04/17 00:48:22;;;;;;;15.43;3.83;;;;;;;;;;5082758;28;31943;-72
2021/04/17 00:50:47;;;;;;;7.00;3.13;;;;;;;;;;5082621;28;32165;-72
2021/04/17 00:53:14;;;;;;;10.70;2.80;;;;;;;;;;5080724;28;32004;-72
2021/04/17 00:55:41;;;;;;;12.40;3.50;;;;;;;;;;5082277;28;32535;-72
2021/04/17 00:58:06;;;;;;;10.38;2.90;;;;;;;;;;5082183;28;32903;-71
2021/04/17 01:00:35;;;;;;;7.88;3.30;;;;;;;;;;5082418;28;32074;-72
2021/04/17 01:03:24;;;;;;;9.50;2.63;;;;;;;;;;5082076;28;32460;-72
2021/04/17 01:05:51;;;;;;;12.82;3.42;;;;;;;;;;5082496;28;31510;-72
2021/04/17 01:08:23;;;;;;;7.03;3.17;;;;;;;;;;5081838;28;32903;-72
2021/04/17 01:10:53;;;;;;;6.13;3.00;;;;;;;;;;5079438;28;32948;-72
2021/04/17 01:13:20;;;;;;;9.90;3.60;;;;;;;;;;5082156;28;32598;-73
2021/04/17 01:15:46;;;;;;;8.63;2.65;;;;;;;;;;5081897;28;33236;-70
2021/04/17 01:18:14;;;;;;;8.88;2.95;;;;;;;;;;5081999;28;31932;-71
2021/04/17 01:20:44;;;;;;;6.68;3.08;;;;;;;;;;5080883;28;31883;-72
2021/04/17 01:23:18;;;;;;;14.15;3.10;;;;;;;;;;5081853;28;33552;-72
2021/04/17 01:26:03;;;;;;;11.25;3.63;;;;;;;;;;5080002;28;31082;-72
2021/04/17 01:28:31;;;;;;;6.03;2.72;;;;;;;;;;5079169;28;32158;-72
2021/04/17 01:30:57;;;;;;;12.38;2.65;;;;;;;;;;5081717;28;32219;-72
2021/04/17 01:33:24;;;;;;;5.05;2.80;;;;;;;;;;5081842;28;32649;-71
2021/04/17 01:35:51;;;;;;;7.82;3.28;;;;;;;;;;5081810;28;32275;-73
2021/04/17 01:38:21;;;;;;;11.38;3.17;;;;;;;;;;5081778;28;31901;-77
2021/04/17 01:40:50;;;;;;;13.63;3.30;;;;;;;;;;5079162;28;32023;-77
2021/04/17 01:43:17;;;;;;;7.70;3.10;;;;;;;;;;5081654;28;32446;-76
2021/04/17 01:45:43;;;;;;;8.32;3.17;;;;;;;;;;5081577;28;32258;-76
2021/04/17 01:48:10;;;;;;;5.75;2.80;;;;;;;;;;5081720;28;31905;-77
2021/04/17 01:50:35;;;;;;;9.55;3.13;;;;;;;;;;5080006;28;32150;-75
2021/04/17 01:53:02;;;;;;;8.50;3.38;;;;;;;;;;5081663;28;33569;-75
2021/04/17 01:55:33;;;;;;;9.70;3.33;;;;;;;;;;5081514;28;33242;-77
2021/04/17 01:57:59;;;;;;;8.80;3.38;;;;;;;;;;5078915;28;32040;-77
2021/04/17 02:00:25;;;;;;;5.72;2.95;;;;;;;;;;5081324;28;32109;-77
2021/04/17 02:02:51;;;;;;;12.27;3.53;;;;;;;;;;5081482;28;32537;-76
2021/04/17 02:05:17;;;;;;;11.30;3.30;;;;;;;;;;5081366;28;32225;-74
2021/04/17 02:07:43;;;;;;;11.48;3.47;;;;;;;;;;5081349;28;31824;-75
2021/04/17 02:10:09;;;;;;;14.73;2.95;;;;;;;;;;5081501;28;32080;-77
2021/04/17 02:12:35;;;;;;;8.40;3.45;;;;;;;;;;5081254;28;32588;-77
2021/04/17 02:15:01;;;;;;;11.15;3.45;;;;;;;;;;5081106;28;32335;-77
2021/04/17 02:17:37;;;;;;;9.38;3.78;;;;;;;;;;5081134;28;31896;-76
2021/04/17 02:20:06;;;;;;;5.90;3.05;;;;;;;;;;5078539;28;32212;-77
2021/04/17 02:22:32;;;;;;;8.48;3.33;;;;;;;;;;5081045;28;32784;-77
2021/04/17 02:24:58;;;;;;;12.70;3.75;;;;;;;;;;5081186;28;32560;-75
2021/04/17 02:27:24;;;;;;;10.55;3.50;;;;;;;;;;5080926;28;32307;-76
2021/04/17 02:29:51;;;;;;;11.68;4.18;;;;;;;;;;5081149;28;32151;-74
2021/04/17 02:32:17;;;;;;;8.63;3.78;;;;;;;;;;5080166;28;32684;-76
2021/04/17 02:34:42;;;;;;;7.38;3.35;;;;;;;;;;5079867;28;32316;-76
2021/04/17 02:37:08;;;;;;;9.40;4.18;;;;;;;;;;5081205;28;32938;-75
2021/04/17 02:39:34;;;;;;;8.98;3.50;;;;;;;;;;5081768;28;32087;-75
2021/04/17 02:42:00;;;;;;;9.65;3.30;;;;;;;;;;5082232;28;32618;-73
2021/04/17 02:44:25;;;;;;;9.88;3.75;;;;;;;;;;5090035;28;33442;-75
2021/04/17 02:46:51;;;;;;;9.10;3.10;;;;;;;;;;5090354;28;32186;-73
2021/04/17 02:49:17;;;;;;;9.95;4.05;;;;;;;;;;5083370;28;31870;-75
2021/04/17 02:51:42;;;;;;;15.10;4.70;;;;;;;;;;5081575;28;33612;-74
2021/04/17 02:54:09;;;;;;;14.23;4.20;;;;;;;;;;5081236;28;32656;-75
2021/04/17 02:56:35;;;;;;;10.88;4.00;;;;;;;;;;5081088;28;31845;-75
2021/04/17 02:59:01;;;;;;;6.88;3.38;;;;;;;;;;5080853;28;32876;-75
2021/04/17 03:01:27;;;;;;;11.20;4.35;;;;;;;;;;5081092;28;32507;-75
2021/04/17 03:03:52;;;;;;;10.18;4.28;;;;;;;;;;5080933;28;32350;-74
2021/04/17 03:06:18;;;;;;;13.98;4.75;;;;;;;;;;5080916;28;31802;-73
2021/04/17 03:08:43;;;;;;;10.07;3.95;;;;;;;;;;5080690;28;32165;-76
2021/04/17 03:11:09;;;;;;;9.20;4.40;;;;;;;;;;5080614;28;32510;-76
2021/04/17 03:13:35;;;;;;;6.95;3.70;;;;;;;;;;5080503;28;33116;-76
2021/04/17 03:16:01;;;;;;;16.63;4.75;;;;;;;;;;5080188;28;32097;-76
2021/04/17 03:18:26;;;;;;;16.40;4.55;;;;;;;;;;5080635;28;32053;-77
2021/04/17 03:20:52;;;;;;;10.95;5.30;;;;;;;;;;5080386;28;33656;-76
2021/04/17 03:23:18;;;;;;;15.18;4.20;;;;;;;;;;5080487;28;32542;-77
2021/04/17 03:25:43;;;;;;;10.45;4.50;;;;;;;;;;5080481;28;31772;-77
2021/04/17 03:28:09;;;;;;;8.65;4.10;;;;;;;;;;5080248;28;32023;-72
2021/04/17 03:30:35;;;;;;;7.88;4.25;;;;;;;;;;5079751;28;33775;-71
2021/04/17 03:33:01;;;;;;;10.93;4.03;;;;;;;;;;5079932;28;33111;-72
2021/04/17 03:35:28;;;;;;;15.63;4.50;;;;;;;;;;5079115;28;32928;-71
2021/04/17 03:37:54;;;;;;;11.93;4.45;;;;;;;;;;5080248;28;32944;-73
2021/04/17 03:40:20;;;;;;;8.82;3.90;;;;;;;;;;5080274;28;32531;-71
2021/04/17 03:42:46;;;;;;;11.45;4.63;;;;;;;;;;5079921;28;33154;-73
2021/04/17 03:45:12;;;;;;;10.77;4.32;;;;;;;;;;5082695;28;31875;-72
2021/04/17 03:47:38;;;;;;;9.93;4.90;;;;;;;;;;5083616;28;31969;-72
2021/04/17 03:50:05;;;;;;;14.35;4.32;;;;;;;;;;5083334;28;32601;-72
2021/04/17 03:52:31;;;;;;;12.32;4.82;;;;;;;;;;5082986;28;32277;-72
2021/04/17 03:54:56;;;;;;;9.18;4.15;;;;;;;;;;5083363;28;31993;-72
2021/04/17 03:57:22;;;;;;;13.93;4.72;;;;;;;;;;5083281;28;32551;-72
2021/04/17 03:59:48;;;;;;;11.93;4.63;;;;;;;;;;5083442;28;32561;-72
2021/04/17 04:02:13;;;;;;;15.45;4.88;;;;;;;;;;5082902;28;32914;-75
2021/04/17 04:04:39;;;;;;;14.85;4.75;;;;;;;;;;5083295;28;31891;-72
2021/04/17 04:07:05;;;;;;;10.18;4.55;;;;;;;;;;5083102;28;32054;-72
2021/04/17 04:09:31;;;;;;;14.60;4.97;;;;;;;;;;5083096;28;32629;-71
2021/04/17 04:11:58;;;;;;;14.98;4.68;;;;;;;;;;5082972;28;32895;-71
2021/04/17 04:14:25;;;;;;;9.65;4.28;;;;;;;;;;5083207;28;32831;-73
2021/04/17 04:16:50;;;;;;;13.18;4.30;;;;;;;;;;5083187;28;31925;-73
2021/04/17 04:19:16;;;;;;;10.85;4.55;;;;;;;;;;5082692;28;32571;-72
2021/04/17 04:21:42;;;;;;;10.82;4.35;;;;;;;;;;5081597;28;31040;-72
2021/04/17 04:24:08;;;;;;;18.13;6.82;;;;;;;;;;5082835;28;32952;-72
2021/04/17 04:26:34;;;;;;;12.43;3.90;;;;;;;;;;5082748;28;32183;-72
2021/04/17 04:29:00;;;;;;;11.23;4.70;;;;;;;;;;5082976;28;32577;-73
2021/04/17 04:31:25;;;;;;;10.63;4.40;;;;;;;;;;5082901;28;32887;-73
2021/04/17 04:33:51;;;;;;;13.90;4.50;;;;;;;;;;5082510;28;32161;-72
2021/04/17 04:36:17;;;;;;;11.93;4.85;;;;;;;;;;5082370;28;32122;-73
2021/04/17 04:38:42;;;;;;;16.98;4.57;;;;;;;;;;5082570;28;33284;-74
2021/04/17 04:41:08;;;;;;;8.50;4.10;;;;;;;;;;5082564;28;32682;-76
2021/04/17 04:43:34;;;;;;;10.18;4.50;;;;;;;;;;5082752;28;32305;-77
2021/04/17 04:45:59;;;;;;;13.10;4.63;;;;;;;;;;5082944;28;33108;-75
2021/04/17 04:48:25;;;;;;;9.80;4.35;;;;;;;;;;5081452;28;31243;-76
2021/04/17 04:50:51;;;;;;;12.73;4.95;;;;;;;;;;5086884;28;33394;-76
2021/04/17 04:53:17;;;;;;;13.40;4.30;;;;;;;;;;5086381;28;32154;-76
2021/04/17 04:55:43;;;;;;;10.50;4.63;;;;;;;;;;5084958;28;32155;-76
2021/04/17 04:58:08;;;;;;;8.55;4.00;;;;;;;;;;5082454;28;33301;-72
2021/04/17 05:00:34;;;;;;;13.52;4.43;;;;;;;;;;5082658;28;32317;-74
2021/04/17 05:03:00;;;;;;;11.57;4.25;;;;;;;;;;5082105;28;33053;-75
2021/04/17 05:05:25;;;;;;;8.70;4.07;;;;;;;;;;5082470;28;31724;-75
2021/04/17 05:07:51;;;;;;;15.30;4.03;;;;;;;;;;5081863;28;32520;-76
2021/04/17 05:10:17;;;;;;;10.40;4.57;;;;;;;;;;5082271;28;33150;-74
2021/04/17 05:12:42;;;;;;;12.05;4.05;;;;;;;;;;5082667;28;33005;-71
2021/04/17 05:15:08;;;;;;;12.65;4.25;;;;;;;;;;5082211;28;32099;-75
2021/04/17 05:17:34;;;;;;;8.13;4.00;;;;;;;;;;5082276;28;32251;-70
2021/04/17 05:20:00;;;;;;;8.23;3.42;;;;;;;;;;5081094;28;32291;-72
2021/04/17 05:22:25;;;;;;;10.20;3.80;;;;;;;;;;5081904;28;31986;-70
2021/04/17 05:24:52;;;;;;;10.02;4.45;;;;;;;;;;5081802;28;32105;-68
2021/04/17 05:27:18;;;;;;;8.00;3.55;;;;;;;;;;5081370;28;32562;-70
2021/04/17 05:29:43;;;;;;;10.63;3.65;;;;;;;;;;5082015;28;32330;-70
2021/04/17 05:32:09;;;;;;;10.10;3.78;;;;;;;;;;5081824;28;32893;-70
2021/04/17 05:34:35;;;;;;;8.25;4.05;;;;;;;;;;5081432;28;31970;-69
2021/04/17 05:37:01;;;;;;;9.85;4.00;;;;;;;;;;5081733;28;32082;-69
2021/04/17 05:39:27;;;;;;;10.05;3.67;;;;;;;;;;5081696;28;32652;-70
2021/04/17 05:41:53;;;;;;;12.75;3.88;;;;;;;;;;5081819;28;31966;-69
2021/04/17 05:44:18;;;;;;;9.93;3.80;;;;;;;;;;5081727;28;32992;-69
2021/04/17 05:46:44;;;;;;;12.15;4.15;;;;;;;;;;5080547;28;33493;-71
2021/04/17 05:49:11;;;;;;;8.55;3.83;;;;;;;;;;5081716;28;32040;-73
2021/04/17 05:51:38;;;;;;;12.82;3.92;;;;;;;;;;5081219;28;32948;-70
2021/04/17 05:54:04;;;;;;;11.05;3.78;;;;;;;;;;5081384;28;33066;-71
2021/04/17 05:56:29;;;;;;;8.02;3.92;;;;;;;;;;5081581;28;32697;-72
2021/04/17 05:58:55;;;;;;;8.13;3.40;;;;;;;;;;5081538;28;32324;-71
2021/04/17 06:01:21;;;;;;;10.07;3.58;;;;;;;;;;5081692;28;32879;-70
2021/04/17 06:03:47;;;;;;;8.93;3.63;;;;;;;;;;5081605;28;32099;-68
2021/04/17 06:06:12;;;;;;;8.25;3.20;;;;;;;;;;5080732;28;32659;-70
2021/04/17 06:08:38;;;;;;;8.23;3.08;;;;;;;;;;5081218;28;32479;-71
2021/04/17 06:11:05;;;;;;;12.63;2.95;;;;;;;;;;5081590;28;31950;-69
2021/04/17 06:13:32;;;;;;;9.27;3.25;;;;;;;;;;5078553;28;31885;-69
2021/04/17 06:15:59;;;;;;;17.02;3.92;;;;;;;;;;5081290;28;32328;-74
2021/04/17 06:18:24;;;;;;;7.72;2.97;;;;;;;;;;5081091;28;32255;-69
2021/04/17 06:20:50;;;;;;;10.40;2.90;;;;;;;;;;5080810;28;32733;-68
2021/04/17 06:23:16;;;;;;;6.95;2.78;;;;;;;;;;5081008;28;32037;-69
2021/04/17 06:25:42;;;;;;;11.00;4.10;;;;;;;;;;5080994;28;32853;-71
2021/04/17 06:28:07;;;;;;;6.25;2.80;;;;;;;;;;5081004;28;32270;-71
2021/04/17 06:30:33;;;;;;;5.65;2.95;;;;;;;;;;5080912;28;32988;-71
2021/04/17 06:32:59;;;;;;;10.07;3.97;;;;;;;;;;5078364;28;32293;-77
2021/04/17 06:35:24;;;;;;;13.95;2.72;;;;;;;;;;5078296;28;32804;-68
2021/04/17 06:37:50;;;;;;;8.70;3.08;;;;;;;;;;5080764;28;32910;-69
2021/04/17 06:40:16;;;;;;;9.55;3.67;;;;;;;;;;5080839;28;31831;-74
2021/04/17 06:42:43;;;;;;;13.65;3.05;;;;;;;;;;5081157;28;31967;-76
2021/04/17 06:45:10;;;;;;;5.63;2.97;;;;;;;;;;5080378;28;33540;-69
2021/04/17 06:47:37;;;;;;;7.13;3.03;;;;;;;;;;5080978;28;33226;-78
2021/04/17 06:50:03;;;;;;;8.07;3.25;;;;;;;;;;5080663;28;32943;-71
2021/04/17 06:52:29;;;;;;;6.93;3.28;;;;;;;;;;5080846;28;31766;-73
2021/04/17 06:54:55;;;;;;;6.45;3.05;;;;;;;;;;5078921;28;32847;-71
2021/04/17 06:57:21;;;;;;;7.57;2.58;;;;;;;;;;5080504;28;32304;-78
2021/04/17 06:59:47;;;;;;;7.57;3.47;;;;;;;;;;5080840;28;31957;-72
2021/04/17 07:02:17;;;;;;;12.90;4.10;;;;;;;;;;5081332;28;32230;-77
2021/04/17 07:04:43;;;;;;;5.65;3.35;;;;;;;;;;5081359;28;33569;-80
2021/04/17 07:07:11;;;;;;;6.15;3.15;;;;;;;;;;5081759;28;32338;-68
2021/04/17 07:09:38;;;;;;;6.70;2.88;;;;;;;;;;5087632;28;32331;-71
2021/04/17 07:12:06;;;;;;;7.90;2.97;;;;;;;;;;5088274;28;31771;-71
2021/04/17 07:14:42;;;;;;;11.23;3.08;;;;;;;;;;5082114;28;32569;-72
2021/04/17 07:17:07;;;;;;;16.42;3.90;;;;;;;;;;5080884;28;33280;-69
2021/04/17 07:19:50;;;;;;;10.18;3.05;;;;;;;;;;5083908;28;32068;-71
2021/04/17 07:22:17;;;;;;;7.95;3.53;;;;;;;;;;5084273;28;32130;-69
2021/04/17 07:24:43;;;;;;;8.85;3.58;;;;;;;;;;5083910;28;32573;-70
2021/04/17 07:27:09;;;;;;;8.75;3.35;;;;;;;;;;5083686;28;32421;-69
2021/04/17 07:29:40;;;;;;;7.97;3.58;;;;;;;;;;5083851;28;31942;-69
2021/04/17 07:32:15;;;;;;;11.23;3.50;;;;;;;;;;5083907;28;31990;-73
2021/04/17 07:34:41;;;;;;;6.28;3.15;;;;;;;;;;5082172;28;33214;-73
2021/04/17 07:37:14;;;;;;;8.23;3.40;;;;;;;;;;5083805;28;32462;-71
2021/04/17 07:39:41;;;;;;;10.75;3.30;;;;;;;;;;5083822;28;31989;-70
2021/04/17 07:42:07;;;;;;;7.50;3.15;;;;;;;;;;5083594;28;32099;-71
2021/04/17 07:44:40;;;;;;;7.07;3.22;;;;;;;;;;5083827;28;33447;-74
2021/04/17 07:47:07;;;;;;;11.68;3.50;;;;;;;;;;5083949;28;32863;-69
2021/04/17 07:49:33;;;;;;;8.40;3.15;;;;;;;;;;5083708;28;32008;-72
2021/04/17 07:52:10;;;;;;;11.00;3.25;;;;;;;;;;5083049;28;32987;-73
2021/04/17 07:54:40;;;;;;;10.68;3.65;;;;;;;;;;5083182;28;33276;-75
2021/04/17 07:57:07;;;;;;;10.95;3.50;;;;;;;;;;5083301;28;32419;-74
2021/04/17 07:59:33;;;;;;;11.77;2.97;;;;;;;;;;5083093;28;31861;-75
2021/04/17 08:01:59;;;;;;;8.23;3.55;;;;;;;;;;5082982;28;32675;-74
2021/04/17 08:04:28;;;;;;;9.68;3.72;;;;;;;;;;5082348;28;32598;-74
2021/04/17 08:06:55;;;;;;;9.30;3.78;;;;;;;;;;5083489;28;32330;-76
2021/04/17 08:09:22;;;;;;;8.73;2.90;;;;;;;;;;5083104;28;32001;-76
2021/04/17 08:11:52;;;;;;;11.13;3.67;;;;;;;;;;5082828;28;33079;-76
2021/04/17 08:14:19;;;;;;;11.05;3.60;;;;;;;;;;5083183;28;32477;-80
2021/04/17 08:16:46;;;;;;;11.48;3.88;;;;;;;;;;5080374;28;32258;-76
2021/04/17 08:19:12;;;;;;;15.23;4.07;;;;;;;;;;5080541;28;32588;-75
2021/04/17 08:21:38;;;;;;;10.25;3.95;;;;;;;;;;5083176;28;32085;-76
2021/04/17 08:24:05;;;;;;;11.13;3.97;;;;;;;;;;5082490;28;33582;-76
2021/04/17 08:26:33;;;;;;;6.93;3.47;;;;;;;;;;5082432;28;33300;-77
2021/04/17 08:28:59;;;;;;;12.23;3.97;;;;;;;;;;5082455;28;32933;-76
2021/04/17 08:31:27;;;;;;;11.52;4.32;;;;;;;;;;5082307;28;32194;-77
2021/04/17 08:34:11;;;;;;;9.27;4.00;;;;;;;;;;5082835;28;33304;-77
2021/04/17 08:36:43;;;;;;;9.38;4.25;;;;;;;;;;5082612;28;32439;-76
2021/04/17 08:39:27;;;;;;;6.22;3.40;;;;;;;;;;5084040;28;33123;-75
2021/04/17 08:41:53;;;;;;;11.20;3.33;;;;;;;;;;5082434;28;31983;-75
2021/04/17 08:44:31;;;;;;;10.40;4.05;;;;;;;;;;5084878;28;33674;-76
2021/04/17 08:46:57;;;;;;;11.60;3.95;;;;;;;;;;5093295;28;32857;-75
2021/04/17 08:49:24;;;;;;;9.80;3.50;;;;;;;;;;5090153;28;32145;-75
2021/04/17 08:51:50;;;;;;;7.75;3.20;;;;;;;;;;5082454;28;31953;-76
2021/04/17 08:54:17;;;;;;;7.35;3.60;;;;;;;;;;5082427;28;32586;-76
2021/04/17 08:56:50;;;;;;;9.40;3.30;;;;;;;;;;5082459;28;32355;-77
2021/04/17 08:59:19;;;;;;;8.05;3.15;;;;;;;;;;5082538;28;33002;-76
2021/04/17 09:01:46;;;;;;;10.10;3.92;;;;;;;;;;5082134;28;33263;-80
2021/04/17 09:04:12;;;;;;;6.63;3.22;;;;;;;;;;5082355;28;32498;-75
2021/04/17 09:06:39;;;;;;;4.85;2.92;;;;;;;;;;5082363;28;32433;-77
2021/04/17 09:09:13;;;;;;;11.82;3.30;;;;;;;;;;5081770;28;32944;-76
2021/04/17 09:11:39;;;;;;;6.82;2.90;;;;;;;;;;5081931;28;32225;-77
2021/04/17 09:14:25;;;;;;;8.88;3.20;;;;;;;;;;5082256;28;32606;-78
2021/04/17 09:16:50;;;;;;;6.65;3.17;;;;;;;;;;5081344;28;32338;-79
2021/04/17 09:19:45;;;;;;;6.57;3.33;;;;;;;;;;5082221;28;31888;-79
2021/04/17 09:22:24;;;;;;;10.57;3.40;;;;;;;;;;5074893;28;31699;-79
2021/04/17 09:24:51;;;;;;;8.02;3.15;;;;;;;;;;5082064;28;32405;-77
2021/04/17 09:27:35;;;;;;;9.80;3.30;;;;;;;;;;5081314;28;33368;-79
2021/04/17 09:30:04;;;;;;;6.00;3.13;;;;;;;;;;5081904;28;32970;-77
2021/04/17 09:32:50;;;;;;;7.40;3.55;;;;;;;;;;5081971;28;33026;-77
2021/04/17 09:35:15;;;;;;;7.45;3.00;;;;;;;;;;5080985;28;33726;-77
2021/04/17 09:37:46;;;;;;;7.07;3.40;;;;;;;;;;5082001;28;32229;-78
2021/04/17 09:40:12;;;;;;;9.43;3.97;;;;;;;;;;5081707;28;32062;-79
2021/04/17 09:42:38;;;;;;;5.93;2.85;;;;;;;;;;5080600;28;33013;-78
2021/04/17 09:45:06;;;;;;;6.30;2.83;;;;;;;;;;5081700;28;32604;-77
2021/04/17 09:47:32;;;;;;;11.70;3.60;;;;;;;;;;5081576;28;32212;-75
2021/04/17 09:49:58;;;;;;;6.10;2.60;;;;;;;;;;5084169;28;33037;-78
2021/04/17 09:52:24;;;;;;;7.20;2.90;;;;;;;;;;5086124;28;32254;-76
2021/04/17 09:54:57;;;;;;;8.93;4.28;;;;;;;;;;5083337;28;32606;-68
2021/04/17 09:57:23;;;;;;;10.20;3.22;;;;;;;;;;5081109;28;30756;-68
2021/04/17 09:59:53;;;;;;;9.05;2.47;;;;;;;;;;5081349;28;31901;-70
2021/04/17 10:02:19;;;;;;;9.57;2.92;;;;;;;;;;5081411;28;32223;-70
2021/04/17 10:04:58;;;;;;;6.45;3.10;;;;;;;;;;5080998;28;32521;-70
2021/04/17 10:07:25;;;;;;;6.93;2.78;;;;;;;;;;5079864;28;30674;-70
2021/04/17 10:09:57;;;;;;;7.90;3.38;;;;;;;;;;5081216;28;31928;-71
2021/04/17 10:12:22;;;;;;;8.13;3.47;;;;;;;;;;5080889;28;32739;-70
2021/04/17 10:14:48;;;;;;;5.45;3.00;;;;;;;;;;5081236;28;32665;-70
2021/04/17 10:17:14;;;;;;;9.25;2.03;;;;;;;;;;5081459;28;32469;-71
2021/04/17 10:19:40;;;;;;;5.22;2.65;;;;;;;;;;5080805;28;31882;-70
2021/04/17 10:22:06;;;;;;;7.57;3.15;;;;;;;;;;5080127;28;30236;-71
2021/04/17 10:24:33;;;;;;;5.60;2.50;;;;;;;;;;5080588;28;32394;-68
2021/04/17 10:27:08;;;;;;;8.95;3.13;;;;;;;;;;5080284;28;32187;-69
2021/04/17 10:29:39;;;;;;;6.25;3.35;;;;;;;;;;5080975;28;32897;-79
2021/04/17 10:32:16;;;;;;;5.13;2.38;;;;;;;;;;5081055;28;32039;-76
2021/04/17 10:34:46;;;;;;;9.30;2.95;;;;;;;;;;5081118;28;33520;-78
2021/04/17 10:37:13;;;;;;;3.25;2.20;;;;;;;;;;5079063;28;33204;-77
2021/04/17 10:39:56;;;;;;;4.72;2.10;;;;;;;;;;5078232;28;32906;-75
2021/04/17 10:42:22;;;;;;;5.60;2.58;;;;;;;;;;5080823;28;38646;-76
2021/04/17 10:44:52;;;;;;;3.80;2.40;;;;;;;;;;5080965;28;32618;-76
2021/04/17 10:47:17;;;;;;;4.22;2.45;;;;;;;;;;5080609;28;33296;-75
2021/04/17 10:49:43;;;;;;;5.18;2.67;;;;;;;;;;5080864;28;31948;-74
2021/04/17 10:52:28;;;;;;;4.00;1.83;;;;;;;;;;5081047;28;32240;-73
2021/04/17 10:54:55;;;;;;;5.30;2.25;;;;;;;;;;5083722;28;32493;-75
2021/04/17 10:57:21;;;;;;;6.07;2.42;;;;;;;;;;5084530;28;32249;-76
2021/04/17 10:59:54;;;;;;;7.50;2.65;;;;;;;;;;5081402;28;32922;-71
2021/04/17 11:02:24;;;;;;;5.10;2.47;;;;;;;;;;5084362;28;31955;-73
2021/04/17 11:04:50;;;;;;;9.32;3.20;;;;;;;;;;5084171;28;32624;-75
2021/04/17 11:07:16;;;;;;;5.85;2.97;;;;;;;;;;5083621;28;33320;-72
2021/04/17 11:09:47;;;;;;;6.38;3.38;;;;;;;;;;5083804;28;32945;-73
2021/04/17 11:12:27;;;;;;;5.68;2.17;;;;;;;;;;5083784;28;31998;-76
2021/04/17 11:15:11;;;;;;;7.57;2.47;;;;;;;;;;5084254;28;36117;-74
2021/04/17 11:17:36;;;;;;;4.80;2.53;;;;;;;;;;5081390;28;32287;-72
2021/04/17 11:20:18;;;;;;;4.75;2.55;;;;;;;;;;5084048;28;32513;-72
2021/04/17 11:22:44;;;;;;;7.15;3.35;;;;;;;;;;5083512;28;33166;-73
2021/04/17 11:25:14;;;;;;;8.07;2.45;;;;;;;;;;5084062;28;32637;-73
2021/04/17 11:27:40;;;;;;;3.30;2.65;;;;;;;;;;5083237;28;33212;-71
2021/04/17 11:30:07;;;;;;;6.43;2.42;;;;;;;;;;5084114;28;32106;-70
2021/04/17 11:32:34;;;;;;;5.80;2.47;;;;;;;;;;5084029;28;31956;-71
2021/04/17 11:35:03;;;;;;;3.85;2.53;;;;;;;;;;5083793;28;32692;-70
2021/04/17 11:37:30;;;;;;;8.60;2.30;;;;;;;;;;5085270;28;33360;-71
2021/04/17 11:39:56;;;;;;;4.82;2.38;;;;;;;;;;5084942;28;31886;-70
2021/04/17 11:42:22;;;;;;;7.32;2.30;;;;;;;;;;5084362;28;32936;-70
2021/04/17 11:44:48;;;;;;;6.38;2.55;;;;;;;;;;5083854;28;32484;-70
2021/04/17 11:47:13;;;;;;;3.47;2.22;;;;;;;;;;5083853;28;32067;-70
2021/04/17 11:49:39;;;;;;;6.60;2.63;;;;;;;;;;5083527;28;31636;-72
2021/04/17 11:52:05;;;;;;;5.22;3.03;;;;;;;;;;5083634;28;31713;-71
2021/04/17 11:54:31;;;;;;;4.82;3.03;;;;;;;;;;5083052;28;33556;-70
2021/04/17 11:56:56;;;;;;;4.55;2.55;;;;;;;;;;5080479;28;32261;-70
2021/04/17 11:59:22;;;;;;;3.30;2.42;;;;;;;;;;5082194;28;30373;-70
2021/04/17 12:01:48;;;;;;;9.80;3.40;;;;;;;;;;5082040;28;30333;-70
2021/04/17 12:04:14;;;;;;;7.45;2.95;;;;;;;;;;5082212;28;45617;-70
2021/04/17 12:06:40;;;;;;;10.52;3.55;;;;;;;;;;5083209;28;30541;-70
2021/04/17 12:09:06;;;;;;;7.45;2.92;;;;;;;;;;5082871;28;31857;-71
2021/04/17 12:11:32;;;;;;;6.85;3.20;;;;;;;;;;5082984;28;32960;-71
2021/04/17 12:13:57;;;;;;;4.68;2.38;;;;;;;;;;5082099;28;32493;-70
2021/04/17 12:16:23;;;;;;;8.70;2.75;;;;;;;;;;5082713;28;32209;-71
2021/04/17 12:18:49;;;;;;;4.45;2.53;;;;;;;;;;5083339;28;32049;-69
2021/04/17 12:21:14;;;;;;;7.32;3.08;;;;;;;;;;5083270;28;33015;-70
2021/04/17 12:23:40;;;;;;;4.75;2.33;;;;;;;;;;5080128;28;37502;-71
2021/04/17 12:26:06;;;;;;;3.17;2.05;;;;;;;;;;5080294;28;32868;-70
2021/04/17 12:28:32;;;;;;;5.75;2.92;;;;;;;;;;5080374;28;32918;-71
2021/04/17 12:30:58;;;;;;;9.30;2.95;;;;;;;;;;5065074;28;30765;-71
2021/04/17 12:33:25;;;;;;;3.78;2.33;;;;;;;;;;5082451;28;33497;-70
2021/04/17 12:35:50;;;;;;;5.03;2.88;;;;;;;;;;5082483;28;33257;-70
2021/04/17 12:38:16;;;;;;;5.43;3.00;;;;;;;;;;5081495;28;31209;-71
2021/04/17 12:40:42;;;;;;;5.40;2.83;;;;;;;;;;5082874;28;32173;-71
2021/04/17 12:43:08;;;;;;;5.82;2.70;;;;;;;;;;5082917;28;33575;-72
2021/04/17 12:45:37;;;;;;;4.40;2.58;;;;;;;;;;5082143;28;33224;-70
2021/04/17 12:48:03;;;;;;;4.18;2.50;;;;;;;;;;5082554;28;32769;-70
2021/04/17 12:50:29;;;;;;;5.82;2.75;;;;;;;;;;5082354;28;31964;-71
2021/04/17 12:52:55;;;;;;;5.30;2.65;;;;;;;;;;5082685;28;32533;-71
2021/04/17 12:55:21;;;;;;;4.32;2.08;;;;;;;;;;5082466;28;33285;-70
2021/04/17 12:57:46;;;;;;;9.10;2.63;;;;;;;;;;5082373;28;32946;-70
2021/04/17 13:00:13;;;;;;;7.05;2.63;;;;;;;;;;5082260;28;32916;-76
2021/04/17 13:02:38;;;;;;;7.03;2.45;;;;;;;;;;5082013;28;32575;-71
2021/04/17 13:05:05;;;;;;;3.60;2.08;;;;;;;;;;5082371;28;32568;-74
2021/04/17 13:07:30;;;;;;;6.80;2.97;;;;;;;;;;5082562;28;31299;-74
2021/04/17 13:09:56;;;;;;;6.88;3.17;;;;;;;;;;5082611;28;32016;-72
2021/04/17 13:12:22;;;;;;;4.78;2.90;;;;;;;;;;5082230;28;32189;-75
2021/04/17 13:14:47;;;;;;;5.32;2.50;;;;;;;;;;5082089;28;32947;-75
2021/04/17 13:17:14;;;;;;;5.78;2.47;;;;;;;;;;5082277;28;31954;-76
2021/04/17 13:19:39;;;;;;;5.57;2.65;;;;;;;;;;5079417;28;31724;-74
2021/04/17 13:22:06;;;;;;;5.15;2.95;;;;;;;;;;5081888;28;32486;-75
2021/04/17 13:24:31;;;;;;;5.65;2.60;;;;;;;;;;5082043;28;33059;-72
2021/04/17 13:26:57;;;;;;;5.40;2.85;;;;;;;;;;5080212;28;30247;-76
2021/04/17 13:29:23;;;;;;;13.55;2.70;;;;;;;;;;5080569;28;30600;-75
2021/04/17 13:31:48;;;;;;;4.18;2.50;;;;;;;;;;5082058;28;33533;-75
2021/04/17 13:34:14;;;;;;;7.72;2.78;;;;;;;;;;5081828;28;32020;-75
2021/04/17 13:36:40;;;;;;;5.47;2.67;;;;;;;;;;5080868;28;30369;-74
2021/04/17 13:39:06;;;;;;;5.25;1.98;;;;;;;;;;5081603;28;32996;-76
2021/04/17 13:41:32;;;;;;;4.93;2.75;;;;;;;;;;5081753;28;33560;-78
2021/04/17 13:43:58;;;;;;;5.63;3.10;;;;;;;;;;5081792;28;33163;-75
2021/04/17 13:46:24;;;;;;;5.68;2.75;;;;;;;;;;5081869;28;32099;-74
2021/04/17 13:48:49;;;;;;;6.13;2.10;;;;;;;;;;5081749;28;32029;-76
2021/04/17 13:51:15;;;;;;;4.45;2.67;;;;;;;;;;5080208;28;31105;-75
2021/04/17 13:53:41;;;;;;;11.60;2.65;;;;;;;;;;5080049;28;31353;-76
2021/04/17 13:56:09;;;;;;;7.35;2.50;;;;;;;;;;5081741;28;32003;-76
2021/04/17 13:58:35;;;;;;;9.70;3.17;;;;;;;;;;5081197;28;33006;-75
2021/04/17 14:01:01;;;;;;;6.97;2.78;;;;;;;;;;5081612;28;32515;-77
2021/04/17 14:03:27;;;;;;;4.97;2.30;;;;;;;;;;5081204;28;32722;-75
2021/04/17 14:05:53;;;;;;;6.57;3.25;;;;;;;;;;5081569;28;32031;-73
2021/04/17 14:08:19;;;;;;;5.55;2.47;;;;;;;;;;5081570;28;32166;-75
2021/04/17 14:10:46;;;;;;;6.50;2.97;;;;;;;;;;5081042;28;33544;-73
2021/04/17 14:13:15;;;;;;;6.55;2.80;;;;;;;;;;5081126;28;31972;-76
2021/04/17 14:15:41;;;;;;;5.43;2.55;;;;;;;;;;5081366;28;31822;-74
2021/04/17 14:18:07;;;;;;;6.63;3.05;;;;;;;;;;5078428;28;31902;-77
2021/04/17 14:20:33;;;;;;;5.65;2.90;;;;;;;;;;5081312;28;32574;-73
2021/04/17 14:22:58;;;;;;;6.03;2.65;;;;;;;;;;5081385;28;32913;-71
2021/04/17 14:25:24;;;;;;;5.95;2.67;;;;;;;;;;5081222;28;31981;-74
2021/04/17 14:27:50;;;;;;;3.25;2.20;;;;;;;;;;5080264;28;32685;-72
2021/04/17 14:30:16;;;;;;;6.60;3.08;;;;;;;;;;5081292;28;32573;-75
2021/04/17 14:32:42;;;;;;;7.60;2.90;;;;;;;;;;5081097;28;33235;-71
2021/04/17 14:35:08;;;;;;;5.47;2.78;;;;;;;;;;5081111;28;31765;-72
2021/04/17 14:37:34;;;;;;;7.88;2.92;;;;;;;;;;5080648;28;32431;-74
2021/04/17 14:39:59;;;;;;;6.75;2.90;;;;;;;;;;5080736;28;32432;-74